sensor_id;sensor_type;location;lat;lon;timestamp;pressure;altitude;pressure_sealevel;temperature;humidity
66524;BME280;53350;52.210;5.160;2023-03-22T00:01:59;100938.34;;;11.56;73.67
66524;BME280;53350;52.210;5.160;2023-03-22T00:04:26;100941.88;;;11.48;73.84
66524;BME280;53350;52.210;5.160;2023-03-22T00:06:52;100935.91;;;11.45;74.03
66524;BME280;53350;52.210;5.160;2023-03-22T00:09:19;100931.59;;;11.44;74.13
66524;BME280;53350;52.210;5.160;2023-03-22T00:11:46;100926.50;;;11.39;74.28
66524;BME280;53350;52.210;5.160;2023-03-22T00:14:16;100924.81;;;11.40;74.23
66524;BME280;53350;52.210;5.160;2023-03-22T00:16:43;100918.66;;;11.47;74.04
66524;BME280;53350;52.210;5.160;2023-03-22T00:19:11;100916.09;;;11.48;73.71
66524;BME280;53350;52.210;5.160;2023-03-22T00:21:38;100910.91;;;11.50;73.89
66524;BME280;53350;52.210;5.160;2023-03-22T00:24:05;100908.31;;;11.50;73.85
66524;BME280;53350;52.210;5.160;2023-03-22T00:26:31;100913.44;;;11.52;73.87
66524;BME280;53350;52.210;5.160;2023-03-22T00:28:58;100908.28;;;11.53;73.58
66524;BME280;53350;52.210;5.160;2023-03-22T00:31:26;100912.63;;;11.48;73.98
66524;BME280;53350;52.210;5.160;2023-03-22T00:33:53;100908.28;;;11.52;73.70
66524;BME280;53350;52.210;5.160;2023-03-22T00:36:20;100907.41;;;11.51;73.73
66524;BME280;53350;52.210;5.160;2023-03-22T00:38:46;100905.72;;;11.52;73.80
66524;BME280;53350;52.210;5.160;2023-03-22T00:41:14;100912.56;;;11.53;73.53
66524;BME280;53350;52.210;5.160;2023-03-22T00:43:41;100896.38;;;11.44;73.64
66524;BME280;53350;52.210;5.160;2023-03-22T00:46:08;100892.03;;;11.45;73.81
66524;BME280;53350;52.210;5.160;2023-03-22T00:48:36;100890.41;;;11.39;74.05
66524;BME280;53350;52.210;5.160;2023-03-22T00:51:04;100883.53;;;11.41;73.90
66524;BME280;53350;52.210;5.160;2023-03-22T00:53:30;100881.00;;;11.35;74.02
66524;BME280;53350;52.210;5.160;2023-03-22T00:55:58;100881.00;;;11.35;74.16
66524;BME280;53350;52.210;5.160;2023-03-22T00:58:25;100873.31;;;11.32;74.01
66524;BME280;53350;52.210;5.160;2023-03-22T01:00:52;100875.97;;;11.27;74.33
66524;BME280;53350;52.210;5.160;2023-03-22T01:03:18;100877.63;;;11.31;74.26
66524;BME280;53350;52.210;5.160;2023-03-22T01:05:47;100867.28;;;11.35;74.22
66524;BME280;53350;52.210;5.160;2023-03-22T01:08:15;100865.69;;;11.26;74.23
66524;BME280;53350;52.210;5.160;2023-03-22T01:10:42;100857.78;;;11.35;73.99
66524;BME280;53350;52.210;5.160;2023-03-22T01:13:10;100845.84;;;11.29;74.04
66524;BME280;53350;52.210;5.160;2023-03-22T01:15:37;100850.09;;;11.32;74.03
66524;BME280;53350;52.210;5.160;2023-03-22T01:18:04;100849.22;;;11.35;74.01
66524;BME280;53350;52.210;5.160;2023-03-22T01:20:32;100839.66;;;11.41;74.01
66524;BME280;53350;52.210;5.160;2023-03-22T01:22:59;100836.19;;;11.42;73.85
66524;BME280;53350;52.210;5.160;2023-03-22T01:25:26;100832.75;;;11.43;73.71
66524;BME280;53350;52.210;5.160;2023-03-22T01:27:52;100833.53;;;11.47;73.62
66524;BME280;53350;52.210;5.160;2023-03-22T01:30:19;100817.09;;;11.53;73.41
66524;BME280;53350;52.210;5.160;2023-03-22T01:32:45;100812.75;;;11.58;73.26
66524;BME280;53350;52.210;5.160;2023-03-22T01:35:12;100819.56;;;11.62;73.13
66524;BME280;53350;52.210;5.160;2023-03-22T01:37:38;100807.47;;;11.64;72.97
66524;BME280;53350;52.210;5.160;2023-03-22T01:40:08;100808.31;;;11.66;72.87
66524;BME280;53350;52.210;5.160;2023-03-22T01:42:35;100795.34;;;11.69;72.75
66524;BME280;53350;52.210;5.160;2023-03-22T01:45:29;100805.84;;;11.58;72.41
66524;BME280;53350;52.210;5.160;2023-03-22T01:48:00;100793.91;;;11.53;72.57
66524;BME280;53350;52.210;5.160;2023-03-22T01:50:28;100788.03;;;11.44;72.65
66524;BME280;53350;52.210;5.160;2023-03-22T01:52:56;100777.03;;;11.33;72.63
66524;BME280;53350;52.210;5.160;2023-03-22T01:55:24;100775.25;;;11.37;72.88
66524;BME280;53350;52.210;5.160;2023-03-22T01:57:52;100773.56;;;11.36;72.78
66524;BME280;53350;52.210;5.160;2023-03-22T02:00:19;100765.81;;;11.37;72.65
66524;BME280;53350;52.210;5.160;2023-03-22T02:02:48;100761.66;;;11.28;72.58
66524;BME280;53350;52.210;5.160;2023-03-22T02:05:16;100754.00;;;11.22;72.70
66524;BME280;53350;52.210;5.160;2023-03-22T02:07:44;100752.50;;;11.09;73.07
66524;BME280;53350;52.210;5.160;2023-03-22T02:12:50;100742.06;;;11.15;73.04
66524;BME280;53350;52.210;5.160;2023-03-22T02:15:23;100747.19;;;11.20;73.08
66524;BME280;53350;52.210;5.160;2023-03-22T02:18:02;100735.19;;;11.17;73.05
66524;BME280;53350;52.210;5.160;2023-03-22T02:21:10;100733.41;;;11.19;73.07
66524;BME280;53350;52.210;5.160;2023-03-22T02:23:54;100721.66;;;11.03;73.82
66524;BME280;53350;52.210;5.160;2023-03-22T02:26:43;100730.91;;;11.16;73.48
66524;BME280;53350;52.210;5.160;2023-03-22T02:29:26;100721.66;;;11.04;73.69
66524;BME280;53350;52.210;5.160;2023-03-22T02:32:09;100719.88;;;11.06;73.71
66524;BME280;53350;52.210;5.160;2023-03-22T02:35:10;100719.00;;;11.07;74.16
66524;BME280;53350;52.210;5.160;2023-03-22T02:38:04;100712.06;;;11.12;74.12
66524;BME280;53350;52.210;5.160;2023-03-22T02:40:43;100713.00;;;11.08;74.82
66524;BME280;53350;52.210;5.160;2023-03-22T02:43:18;100713.88;;;11.06;75.14
66524;BME280;53350;52.210;5.160;2023-03-22T02:45:52;100706.84;;;11.16;74.44
66524;BME280;53350;52.210;5.160;2023-03-22T02:48:25;100700.00;;;11.13;75.21
66524;BME280;53350;52.210;5.160;2023-03-22T02:50:54;100705.09;;;11.18;74.70
66524;BME280;53350;52.210;5.160;2023-03-22T02:53:24;100687.94;;;11.15;75.95
66524;BME280;53350;52.210;5.160;2023-03-22T02:55:58;100699.19;;;11.12;76.32
66524;BME280;53350;52.210;5.160;2023-03-22T02:58:28;100691.41;;;11.14;76.05
66524;BME280;53350;52.210;5.160;2023-03-22T03:00:59;100680.16;;;11.20;75.62
66524;BME280;53350;52.210;5.160;2023-03-22T03:03:28;100681.81;;;11.21;75.95
66524;BME280;53350;52.210;5.160;2023-03-22T03:05:58;100680.28;;;11.10;76.58
66524;BME280;53350;52.210;5.160;2023-03-22T03:08:26;100686.06;;;11.25;76.13
66524;BME280;53350;52.210;5.160;2023-03-22T03:10:55;100682.72;;;11.20;76.92
66524;BME280;53350;52.210;5.160;2023-03-22T03:13:22;100699.75;;;11.28;76.28
66524;BME280;53350;52.210;5.160;2023-03-22T03:15:51;100686.84;;;11.30;76.58
66524;BME280;53350;52.210;5.160;2023-03-22T03:18:27;100682.50;;;11.32;76.32
66524;BME280;53350;52.210;5.160;2023-03-22T03:21:03;100691.03;;;11.36;76.75
66524;BME280;53350;52.210;5.160;2023-03-22T03:23:38;100679.78;;;11.40;76.47
66524;BME280;53350;52.210;5.160;2023-03-22T03:26:12;100686.63;;;11.41;77.12
66524;BME280;53350;52.210;5.160;2023-03-22T03:28:47;100685.69;;;11.46;76.64
66524;BME280;53350;52.210;5.160;2023-03-22T03:31:25;100678.81;;;11.45;76.69
66524;BME280;53350;52.210;5.160;2023-03-22T03:34:00;100683.09;;;11.46;77.46
66524;BME280;53350;52.210;5.160;2023-03-22T03:36:30;100679.69;;;11.46;77.10
66524;BME280;53350;52.210;5.160;2023-03-22T03:39:00;100676.25;;;11.44;77.37
66524;BME280;53350;52.210;5.160;2023-03-22T03:41:30;100669.41;;;11.43;77.59
66524;BME280;53350;52.210;5.160;2023-03-22T03:43:57;100667.75;;;11.40;78.03
66524;BME280;53350;52.210;5.160;2023-03-22T03:46:24;100679.63;;;11.49;77.44
66524;BME280;53350;52.210;5.160;2023-03-22T03:48:53;100675.28;;;11.49;77.45
66524;BME280;53350;52.210;5.160;2023-03-22T03:51:22;100674.63;;;11.40;77.88
66524;BME280;53350;52.210;5.160;2023-03-22T03:53:48;100679.69;;;11.46;77.62
66524;BME280;53350;52.210;5.160;2023-03-22T03:56:14;100675.28;;;11.49;77.79
66524;BME280;53350;52.210;5.160;2023-03-22T03:58:42;100678.75;;;11.50;77.80
66524;BME280;53350;52.210;5.160;2023-03-22T04:01:09;100679.53;;;11.54;77.68
66524;BME280;53350;52.210;5.160;2023-03-22T04:03:35;100673.59;;;11.50;78.19
66524;BME280;53350;52.210;5.160;2023-03-22T04:06:02;100670.94;;;11.53;77.80
66524;BME280;53350;52.210;5.160;2023-03-22T04:08:28;100668.31;;;11.56;77.85
66524;BME280;53350;52.210;5.160;2023-03-22T04:10:55;100668.28;;;11.58;77.68
66524;BME280;53350;52.210;5.160;2023-03-22T04:13:21;100663.09;;;11.59;77.61
66524;BME280;53350;52.210;5.160;2023-03-22T04:15:52;100657.97;;;11.58;77.88
66524;BME280;53350;52.210;5.160;2023-03-22T04:18:19;100665.69;;;11.58;77.88
66524;BME280;53350;52.210;5.160;2023-03-22T04:20:46;100669.06;;;11.60;77.66
66524;BME280;53350;52.210;5.160;2023-03-22T04:23:13;100664.78;;;11.60;77.71
66524;BME280;53350;52.210;5.160;2023-03-22T04:25:40;100651.00;;;11.61;77.86
66524;BME280;53350;52.210;5.160;2023-03-22T04:28:07;100649.19;;;11.66;77.64
66524;BME280;53350;52.210;5.160;2023-03-22T04:30:34;100653.44;;;11.69;77.51
66524;BME280;53350;52.210;5.160;2023-03-22T04:33:02;100650.75;;;11.74;77.17
66524;BME280;53350;52.210;5.160;2023-03-22T04:35:31;100643.81;;;11.76;77.34
66524;BME280;53350;52.210;5.160;2023-03-22T04:37:57;100637.88;;;11.72;77.27
66524;BME280;53350;52.210;5.160;2023-03-22T04:40:25;100641.44;;;11.66;77.37
66524;BME280;53350;52.210;5.160;2023-03-22T04:42:55;100647.47;;;11.65;77.63
66524;BME280;53350;52.210;5.160;2023-03-22T04:45:23;100650.81;;;11.71;77.47
66524;BME280;53350;52.210;5.160;2023-03-22T04:47:50;100648.34;;;11.66;77.68
66524;BME280;53350;52.210;5.160;2023-03-22T04:50:18;100634.50;;;11.69;77.44
66524;BME280;53350;52.210;5.160;2023-03-22T04:52:45;100628.56;;;11.65;77.62
66524;BME280;53350;52.210;5.160;2023-03-22T04:55:12;100633.63;;;11.70;77.45
66524;BME280;53350;52.210;5.160;2023-03-22T04:57:38;100626.69;;;11.73;77.31
66524;BME280;53350;52.210;5.160;2023-03-22T05:00:06;100625.72;;;11.77;77.16
66524;BME280;53350;52.210;5.160;2023-03-22T05:02:34;100617.13;;;11.78;77.17
66524;BME280;53350;52.210;5.160;2023-03-22T05:05:03;100619.88;;;11.71;77.16
66524;BME280;53350;52.210;5.160;2023-03-22T05:07:31;100607.81;;;11.71;77.33
66524;BME280;53350;52.210;5.160;2023-03-22T05:09:58;100615.44;;;11.76;77.17
66524;BME280;53350;52.210;5.160;2023-03-22T05:12:24;100611.09;;;11.79;76.97
66524;BME280;53350;52.210;5.160;2023-03-22T05:14:51;100619.72;;;11.77;76.93
66524;BME280;53350;52.210;5.160;2023-03-22T05:17:17;100618.03;;;11.76;76.88
66524;BME280;53350;52.210;5.160;2023-03-22T05:19:44;100625.00;;;11.72;76.92
66524;BME280;53350;52.210;5.160;2023-03-22T05:22:10;100617.22;;;11.74;76.65
66524;BME280;53350;52.210;5.160;2023-03-22T05:24:39;100607.19;;;11.58;76.94
66524;BME280;53350;52.210;5.160;2023-03-22T05:27:06;100615.63;;;11.66;76.83
66524;BME280;53350;52.210;5.160;2023-03-22T05:29:32;100613.94;;;11.65;76.91
66524;BME280;53350;52.210;5.160;2023-03-22T05:32:01;100611.44;;;11.61;77.23
66524;BME280;53350;52.210;5.160;2023-03-22T05:34:27;100600.25;;;11.62;76.84
66524;BME280;53350;52.210;5.160;2023-03-22T05:36:59;100608.09;;;11.57;77.21
66524;BME280;53350;52.210;5.160;2023-03-22T05:39:26;100607.09;;;11.64;76.82
66524;BME280;53350;52.210;5.160;2023-03-22T05:41:54;100601.22;;;11.56;77.10
66524;BME280;53350;52.210;5.160;2023-03-22T05:44:20;100599.41;;;11.61;76.91
66524;BME280;53350;52.210;5.160;2023-03-22T05:46:47;100598.44;;;11.65;76.94
66524;BME280;53350;52.210;5.160;2023-03-22T05:49:13;100593.22;;;11.69;76.69
66524;BME280;53350;52.210;5.160;2023-03-22T05:51:39;100589.06;;;11.61;76.96
66524;BME280;53350;52.210;5.160;2023-03-22T05:54:07;100583.03;;;11.62;76.88
66524;BME280;53350;52.210;5.160;2023-03-22T05:56:34;100586.41;;;11.66;76.61
66524;BME280;53350;52.210;5.160;2023-03-22T05:59:02;100589.88;;;11.65;76.53
66524;BME280;53350;52.210;5.160;2023-03-22T06:01:29;100585.63;;;11.62;76.42
66524;BME280;53350;52.210;5.160;2023-03-22T06:03:57;100579.69;;;11.59;76.87
66524;BME280;53350;52.210;5.160;2023-03-22T06:06:23;100586.50;;;11.61;76.77
66524;BME280;53350;52.210;5.160;2023-03-22T06:08:52;100580.50;;;11.61;76.70
66524;BME280;53350;52.210;5.160;2023-03-22T06:11:18;100588.97;;;11.68;76.20
66524;BME280;53350;52.210;5.160;2023-03-22T06:13:45;100584.94;;;11.53;76.86
66524;BME280;53350;52.210;5.160;2023-03-22T06:16:13;100586.50;;;11.63;76.58
66524;BME280;53350;52.210;5.160;2023-03-22T06:18:39;100587.25;;;11.66;76.30
66524;BME280;53350;52.210;5.160;2023-03-22T06:21:06;100586.28;;;11.72;76.16
66524;BME280;53350;52.210;5.160;2023-03-22T06:23:32;100594.78;;;11.76;75.97
66524;BME280;53350;52.210;5.160;2023-03-22T06:25:59;100589.56;;;11.80;76.14
66524;BME280;53350;52.210;5.160;2023-03-22T06:28:25;100583.47;;;11.83;75.84
66524;BME280;53350;52.210;5.160;2023-03-22T06:30:54;100592.72;;;11.92;75.74
66524;BME280;53350;52.210;5.160;2023-03-22T06:33:21;100588.41;;;11.95;75.15
66524;BME280;53350;52.210;5.160;2023-03-22T06:35:48;100581.53;;;11.93;75.24
66524;BME280;53350;52.210;5.160;2023-03-22T06:38:14;100593.75;;;11.84;75.39
66524;BME280;53350;52.210;5.160;2023-03-22T06:40:40;100582.47;;;11.89;75.15
66524;BME280;53350;52.210;5.160;2023-03-22T06:43:07;100586.69;;;11.94;74.77
66524;BME280;53350;52.210;5.160;2023-03-22T06:45:33;100590.22;;;11.89;75.12
66524;BME280;53350;52.210;5.160;2023-03-22T06:48:00;100590.97;;;11.95;74.91
66524;BME280;53350;52.210;5.160;2023-03-22T06:50:28;100596.00;;;12.02;74.84
66524;BME280;53350;52.210;5.160;2023-03-22T06:52:54;100593.22;;;12.11;74.71
66524;BME280;53350;52.210;5.160;2023-03-22T06:55:21;100597.44;;;12.13;74.60
66524;BME280;53350;52.210;5.160;2023-03-22T06:57:47;100587.81;;;12.22;73.73
66524;BME280;53350;52.210;5.160;2023-03-22T07:00:15;100591.38;;;12.16;73.88
66524;BME280;53350;52.210;5.160;2023-03-22T07:02:41;100586.94;;;12.23;73.51
66524;BME280;53350;52.210;5.160;2023-03-22T07:05:08;100587.84;;;12.20;73.48
66524;BME280;53350;52.210;5.160;2023-03-22T07:07:36;100591.19;;;12.25;73.27
66524;BME280;53350;52.210;5.160;2023-03-22T07:10:03;100589.38;;;12.29;72.90
66524;BME280;53350;52.210;5.160;2023-03-22T07:12:31;100597.94;;;12.29;72.84
66524;BME280;53350;52.210;5.160;2023-03-22T07:14:58;100584.97;;;12.32;72.81
66524;BME280;53350;52.210;5.160;2023-03-22T07:17:24;100588.44;;;12.31;72.52
66524;BME280;53350;52.210;5.160;2023-03-22T07:19:51;100588.38;;;12.34;72.55
66524;BME280;53350;52.210;5.160;2023-03-22T07:22:17;100595.38;;;12.29;72.63
66524;BME280;53350;52.210;5.160;2023-03-22T07:24:47;100579.91;;;12.28;72.77
66524;BME280;53350;52.210;5.160;2023-03-22T07:27:14;100591.00;;;12.33;72.88
66524;BME280;53350;52.210;5.160;2023-03-22T07:29:40;100579.66;;;12.39;72.60
66524;BME280;53350;52.210;5.160;2023-03-22T07:32:07;100588.25;;;12.39;72.99
66524;BME280;53350;52.210;5.160;2023-03-22T07:34:33;100593.22;;;12.48;72.75
66524;BME280;53350;52.210;5.160;2023-03-22T07:37:00;100577.59;;;12.53;72.45
66524;BME280;53350;52.210;5.160;2023-03-22T07:39:27;100578.34;;;12.57;71.94
66524;BME280;53350;52.210;5.160;2023-03-22T07:41:55;100575.03;;;12.53;72.00
66524;BME280;53350;52.210;5.160;2023-03-22T07:44:22;100570.03;;;12.45;72.50
66524;BME280;53350;52.210;5.160;2023-03-22T07:46:49;100569.88;;;12.51;72.16
66524;BME280;53350;52.210;5.160;2023-03-22T07:49:16;100568.16;;;12.52;71.97
66524;BME280;53350;52.210;5.160;2023-03-22T07:51:43;100568.72;;;12.63;71.27
66524;BME280;53350;52.210;5.160;2023-03-22T07:54:10;100569.41;;;12.72;71.12
66524;BME280;53350;52.210;5.160;2023-03-22T07:56:36;100579.81;;;12.67;71.45
66524;BME280;53350;52.210;5.160;2023-03-22T07:59:04;100566.69;;;12.76;70.87
66524;BME280;53350;52.210;5.160;2023-03-22T08:01:31;100570.22;;;12.72;71.24
66524;BME280;53350;52.210;5.160;2023-03-22T08:03:57;100569.31;;;12.75;71.21
66524;BME280;53350;52.210;5.160;2023-03-22T08:06:24;100577.03;;;12.76;71.28
66524;BME280;53350;52.210;5.160;2023-03-22T08:08:50;100577.19;;;12.68;71.30
66524;BME280;53350;52.210;5.160;2023-03-22T08:11:17;100585.66;;;12.75;70.95
66524;BME280;53350;52.210;5.160;2023-03-22T08:13:43;100587.38;;;12.76;70.88
66524;BME280;53350;52.210;5.160;2023-03-22T08:16:11;100574.44;;;12.76;71.03
66524;BME280;53350;52.210;5.160;2023-03-22T08:18:38;100584.41;;;12.90;70.63
66524;BME280;53350;52.210;5.160;2023-03-22T08:21:05;100583.56;;;12.90;70.61
66524;BME280;53350;52.210;5.160;2023-03-22T08:23:31;100573.19;;;12.91;70.35
66524;BME280;53350;52.210;5.160;2023-03-22T08:25:58;100570.44;;;12.97;70.48
66524;BME280;53350;52.210;5.160;2023-03-22T08:28:24;100582.56;;;12.95;72.76
66524;BME280;53350;52.210;5.160;2023-03-22T08:30:51;100573.88;;;12.98;72.54
66524;BME280;53350;52.210;5.160;2023-03-22T08:33:18;100578.00;;;13.05;72.18
66524;BME280;53350;52.210;5.160;2023-03-22T08:35:48;100578.75;;;13.09;72.12
66524;BME280;53350;52.210;5.160;2023-03-22T08:38:14;100567.47;;;13.11;72.40
66524;BME280;53350;52.210;5.160;2023-03-22T08:40:41;100574.38;;;13.12;72.67
66524;BME280;53350;52.210;5.160;2023-03-22T08:43:10;100577.59;;;13.19;72.37
66524;BME280;53350;52.210;5.160;2023-03-22T08:45:37;100572.34;;;13.22;71.84
66524;BME280;53350;52.210;5.160;2023-03-22T08:48:03;100574.22;;;13.17;71.79
66524;BME280;53350;52.210;5.160;2023-03-22T08:50:31;100574.38;;;13.12;71.77
66524;BME280;53350;52.210;5.160;2023-03-22T08:52:58;100572.66;;;13.11;71.65
66524;BME280;53350;52.210;5.160;2023-03-22T08:55:25;100579.53;;;13.12;71.86
66524;BME280;53350;52.210;5.160;2023-03-22T08:57:51;100581.28;;;13.10;72.03
66524;BME280;53350;52.210;5.160;2023-03-22T09:00:18;100580.47;;;13.10;71.89
66524;BME280;53350;52.210;5.160;2023-03-22T09:02:45;100586.47;;;13.10;71.88
66524;BME280;53350;52.210;5.160;2023-03-22T09:05:12;100580.63;;;13.02;72.82
66524;BME280;53350;52.210;5.160;2023-03-22T09:07:40;100580.69;;;13.00;73.41
66524;BME280;53350;52.210;5.160;2023-03-22T09:10:07;100576.59;;;12.92;73.89
66524;BME280;53350;52.210;5.160;2023-03-22T09:12:34;100584.78;;;12.76;74.42
66524;BME280;53350;52.210;5.160;2023-03-22T09:15:01;100574.28;;;12.82;74.10
66524;BME280;53350;52.210;5.160;2023-03-22T09:17:28;100582.03;;;12.82;74.50
66524;BME280;53350;52.210;5.160;2023-03-22T09:19:54;100571.97;;;12.72;75.47
66524;BME280;53350;52.210;5.160;2023-03-22T09:22:21;100565.78;;;12.77;74.34
66524;BME280;53350;52.210;5.160;2023-03-22T09:24:49;100582.28;;;12.73;74.76
66524;BME280;53350;52.210;5.160;2023-03-22T09:27:16;100577.84;;;12.77;74.83
66524;BME280;53350;52.210;5.160;2023-03-22T09:29:42;100564.81;;;12.81;74.57
66524;BME280;53350;52.210;5.160;2023-03-22T09:32:08;100566.47;;;12.84;74.80
66524;BME280;53350;52.210;5.160;2023-03-22T09:34:35;100565.97;;;12.69;75.84
66524;BME280;53350;52.210;5.160;2023-03-22T09:37:01;100570.50;;;12.61;75.63
66524;BME280;53350;52.210;5.160;2023-03-22T09:39:28;100570.59;;;12.57;75.97
66524;BME280;53350;52.210;5.160;2023-03-22T09:41:59;100569.22;;;12.43;76.77
66524;BME280;53350;52.210;5.160;2023-03-22T09:44:30;100570.19;;;12.39;76.66
66524;BME280;53350;52.210;5.160;2023-03-22T09:46:59;100551.38;;;12.34;76.33
66524;BME280;53350;52.210;5.160;2023-03-22T09:49:29;100576.38;;;12.32;77.24
66524;BME280;53350;52.210;5.160;2023-03-22T09:52:00;100563.66;;;12.24;77.64
66524;BME280;53350;52.210;5.160;2023-03-22T09:54:31;100575.66;;;12.27;77.83
66524;BME280;53350;52.210;5.160;2023-03-22T09:57:03;100560.19;;;12.24;77.51
66524;BME280;53350;52.210;5.160;2023-03-22T09:59:37;100570.41;;;12.30;77.40
66524;BME280;53350;52.210;5.160;2023-03-22T10:02:21;100560.25;;;12.22;77.90
66524;BME280;53350;52.210;5.160;2023-03-22T10:04:57;100568.00;;;12.22;78.18
66524;BME280;53350;52.210;5.160;2023-03-22T10:07:32;100569.84;;;12.17;78.94
66524;BME280;53350;52.210;5.160;2023-03-22T10:10:11;100570.66;;;12.19;78.34
66524;BME280;53350;52.210;5.160;2023-03-22T10:12:48;100562.13;;;12.15;78.67
66524;BME280;53350;52.210;5.160;2023-03-22T10:15:17;100572.34;;;12.20;78.37
66524;BME280;53350;52.210;5.160;2023-03-22T10:17:49;100575.03;;;12.15;78.90
66524;BME280;53350;52.210;5.160;2023-03-22T10:20:26;100579.59;;;12.04;80.00
66524;BME280;53350;52.210;5.160;2023-03-22T10:22:57;100572.56;;;12.11;79.25
66524;BME280;53350;52.210;5.160;2023-03-22T10:25:32;100570.66;;;12.19;78.94
66524;BME280;53350;52.210;5.160;2023-03-22T10:28:11;100574.09;;;12.20;79.22
66524;BME280;53350;52.210;5.160;2023-03-22T10:30:40;100584.50;;;12.15;80.08
66524;BME280;53350;52.210;5.160;2023-03-22T10:33:12;100565.91;;;12.02;80.03
66524;BME280;53350;52.210;5.160;2023-03-22T10:35:40;100580.25;;;12.14;79.81
66524;BME280;53350;52.210;5.160;2023-03-22T10:38:08;100576.72;;;12.18;79.38
66524;BME280;53350;52.210;5.160;2023-03-22T10:40:41;100574.09;;;12.20;79.46
66524;BME280;53350;52.210;5.160;2023-03-22T10:43:16;100571.56;;;12.16;80.09
66524;BME280;53350;52.210;5.160;2023-03-22T10:45:45;100579.31;;;12.18;79.84
66524;BME280;53350;52.210;5.160;2023-03-22T10:48:17;100573.63;;;12.02;80.09
66524;BME280;53350;52.210;5.160;2023-03-22T10:50:46;100565.13;;;11.97;80.06
66524;BME280;53350;52.210;5.160;2023-03-22T10:53:16;100558.75;;;12.12;79.90
66524;BME280;53350;52.210;5.160;2023-03-22T10:55:46;100556.97;;;12.15;80.46
66524;BME280;53350;52.210;5.160;2023-03-22T10:58:16;100555.88;;;12.26;79.63
66524;BME280;53350;52.210;5.160;2023-03-22T11:00:44;100550.53;;;12.32;79.68
66524;BME280;53350;52.210;5.160;2023-03-22T11:03:16;100548.88;;;12.29;80.68
66524;BME280;53350;52.210;5.160;2023-03-22T11:05:57;100543.63;;;12.32;80.33
66524;BME280;53350;52.210;5.160;2023-03-22T11:08:23;100562.22;;;12.47;80.01
66524;BME280;53350;52.210;5.160;2023-03-22T11:10:49;100547.63;;;12.46;80.03
66524;BME280;53350;52.210;5.160;2023-03-22T11:13:18;100550.94;;;12.51;79.50
66524;BME280;53350;52.210;5.160;2023-03-22T11:15:53;100550.16;;;12.49;79.72
66524;BME280;53350;52.210;5.160;2023-03-22T11:18:20;100550.31;;;12.43;80.15
66524;BME280;53350;52.210;5.160;2023-03-22T11:20:54;100547.59;;;12.47;80.13
66524;BME280;53350;52.210;5.160;2023-03-22T11:23:23;100549.31;;;12.48;80.21
66524;BME280;53350;52.210;5.160;2023-03-22T11:25:51;100548.41;;;12.49;80.08
66524;BME280;53350;52.210;5.160;2023-03-22T11:28:26;100553.34;;;12.59;79.63
66524;BME280;53350;52.210;5.160;2023-03-22T11:31:07;100551.44;;;12.65;79.56
66524;BME280;53350;52.210;5.160;2023-03-22T11:33:34;100558.09;;;12.74;78.92
66524;BME280;53350;52.210;5.160;2023-03-22T11:36:03;100565.81;;;12.76;78.88
66524;BME280;53350;52.210;5.160;2023-03-22T11:38:36;100559.69;;;12.80;78.08
66524;BME280;53350;52.210;5.160;2023-03-22T11:41:06;100569.16;;;12.81;78.18
66524;BME280;53350;52.210;5.160;2023-03-22T11:43:36;100572.56;;;12.81;78.17
66524;BME280;53350;52.210;5.160;2023-03-22T11:46:06;100579.41;;;12.84;77.27
66524;BME280;53350;52.210;5.160;2023-03-22T11:48:34;100591.25;;;12.93;76.93
66524;BME280;53350;52.210;5.160;2023-03-22T11:51:07;100593.00;;;12.92;76.92
66524;BME280;53350;52.210;5.160;2023-03-22T11:53:37;100573.94;;;12.96;76.53
66524;BME280;53350;52.210;5.160;2023-03-22T11:56:05;100579.19;;;12.92;76.61
66524;BME280;53350;52.210;5.160;2023-03-22T11:58:49;100579.31;;;12.87;76.91
66524;BME280;53350;52.210;5.160;2023-03-22T12:01:30;100579.44;;;12.82;76.93
66524;BME280;53350;52.210;5.160;2023-03-22T12:03:58;100575.03;;;12.87;76.08
66524;BME280;53350;52.210;5.160;2023-03-22T12:06:28;100576.81;;;12.84;76.61
66524;BME280;53350;52.210;5.160;2023-03-22T12:08:59;100582.78;;;12.86;76.53
66524;BME280;53350;52.210;5.160;2023-03-22T12:11:31;100577.56;;;12.89;76.71
66524;BME280;53350;52.210;5.160;2023-03-22T12:14:03;100580.19;;;12.86;76.57
66524;BME280;53350;52.210;5.160;2023-03-22T12:16:35;100579.47;;;12.81;76.45
66524;BME280;53350;52.210;5.160;2023-03-22T12:19:14;100565.84;;;12.74;77.02
66524;BME280;53350;52.210;5.160;2023-03-22T12:21:44;100577.75;;;12.81;76.41
66524;BME280;53350;52.210;5.160;2023-03-22T12:24:24;100584.78;;;12.76;77.21
66524;BME280;53350;52.210;5.160;2023-03-22T12:26:53;100589.88;;;12.79;76.81
66524;BME280;53350;52.210;5.160;2023-03-22T12:29:22;100582.19;;;12.76;77.10
66524;BME280;53350;52.210;5.160;2023-03-22T12:31:56;100575.19;;;12.80;76.99
66524;BME280;53350;52.210;5.160;2023-03-22T12:34:33;100570.69;;;12.88;76.49
66524;BME280;53350;52.210;5.160;2023-03-22T12:37:01;100572.31;;;12.92;76.67
66524;BME280;53350;52.210;5.160;2023-03-22T12:39:34;100568.44;;;12.74;77.44
66524;BME280;53350;52.210;5.160;2023-03-22T12:42:03;100576.69;;;12.88;76.82
66524;BME280;53350;52.210;5.160;2023-03-22T12:44:35;100568.06;;;12.90;77.06
66524;BME280;53350;52.210;5.160;2023-03-22T12:47:06;100554.91;;;12.97;76.36
66524;BME280;53350;52.210;5.160;2023-03-22T12:49:41;100538.75;;;12.91;76.79
66524;BME280;53350;52.210;5.160;2023-03-22T12:52:14;100536.19;;;12.89;76.86
66524;BME280;53350;52.210;5.160;2023-03-22T12:54:43;100541.28;;;12.92;77.07
66524;BME280;53350;52.210;5.160;2023-03-22T12:57:13;100548.81;;;13.00;76.92
66524;BME280;53350;52.210;5.160;2023-03-22T12:59:44;100560.88;;;13.01;76.90
66524;BME280;53350;52.210;5.160;2023-03-22T13:02:15;100564.16;;;13.06;76.72
66524;BME280;53350;52.210;5.160;2023-03-22T13:04:51;100561.03;;;12.95;76.97